Time,TemperatureF,DewpointF,PressureIn,WindDirection,WindDirectionDegrees,WindSpeedMPH,WindSpeedGustMPH,Humidity,HourlyPrecipIn,Conditions,Clouds,dailyrainin,SolarRadiationWatts/m^2,SoftwareType,DateUTC
2013-07-21 00:00:00,80.0,67.0,-100.00,SE,137,2.0,-999.0,65,0.00,,,-99.99,0.000000,,2013-07-21 05:00:00,
2013-07-21 00:22:00,80.0,67.0,-100.00,SE,137,2.0,-999.0,65,0.00,,,-99.99,0.000000,,2013-07-21 05:22:00,
2013-07-21 00:32:00,80.0,67.0,-100.00,SE,137,2.0,-999.0,65,0.00,,,-99.99,0.000000,,2013-07-21 05:32:00,
2013-07-21 00:42:00,80.0,67.0,-100.00,SE,137,2.0,-999.0,65,0.00,,,-99.99,0.000000,,2013-07-21 05:42:00,
2013-07-21 00:52:00,80.0,67.0,-100.00,SE,137,2.0,-999.0,65,0.00,,,-99.99,0.000000,,2013-07-21 05:52:00,
2013-07-21 01:00:00,80.0,67.0,-100.00,SSE,158,3.0,-999.0,63,0.00,,,-99.99,0.000000,,2013-07-21 06:00:00,
2013-07-21 01:22:00,80.0,67.0,-100.00,SSE,158,3.0,-999.0,63,0.00,,,-99.99,0.000000,,2013-07-21 06:22:00,
2013-07-21 01:32:00,80.0,67.0,-100.00,SSE,158,3.0,-999.0,63,0.00,,,-99.99,0.000000,,2013-07-21 06:32:00,
2013-07-21 01:43:00,80.0,67.0,-100.00,SSE,158,3.0,-999.0,63,0.00,,,-99.99,0.000000,,2013-07-21 06:43:00,
2013-07-21 01:52:00,80.0,67.0,-100.00,SSE,158,3.0,-999.0,63,0.00,,,-99.99,0.000000,,2013-07-21 06:52:00,
2013-07-21 02:00:00,80.0,66.0,-100.00,NE,34,7.0,-999.0,64,0.00,,,-99.99,0.000000,,2013-07-21 07:00:00,
2013-07-21 02:22:00,80.0,66.0,-100.00,NE,34,7.0,-999.0,64,0.00,,,-99.99,0.000000,,2013-07-21 07:22:00,
2013-07-21 02:32:00,80.0,66.0,-100.00,NE,34,7.0,-999.0,64,0.00,,,-99.99,0.000000,,2013-07-21 07:32:00,
2013-07-21 02:43:00,80.0,66.0,-100.00,NE,34,7.0,-999.0,64,0.00,,,-99.99,0.000000,,2013-07-21 07:43:00,
2013-07-21 02:53:00,80.0,66.0,-100.00,NE,34,7.0,-999.0,64,0.00,,,-99.99,0.000000,,2013-07-21 07:53:00,
2013-07-21 03:00:00,77.0,65.0,-100.00,ENE,78,6.0,-999.0,66,0.00,,,-99.99,0.000000,,2013-07-21 08:00:00,
2013-07-21 03:22:00,77.0,65.0,-100.00,ENE,78,6.0,-999.0,66,0.00,,,-99.99,0.000000,,2013-07-21 08:22:00,
2013-07-21 03:33:00,77.0,65.0,-100.00,ENE,78,6.0,-999.0,66,0.00,,,-99.99,0.000000,,2013-07-21 08:33:00,
2013-07-21 03:43:00,77.0,65.0,-100.00,ENE,78,6.0,-999.0,66,0.00,,,-99.99,0.000000,,2013-07-21 08:43:00,
2013-07-21 03:52:00,77.0,65.0,-100.00,ENE,78,6.0,-999.0,66,0.00,,,-99.99,0.000000,,2013-07-21 08:52:00,
2013-07-21 04:00:00,76.0,65.0,-100.00,ESE,108,2.0,-999.0,69,0.00,,,-99.99,0.000000,,2013-07-21 09:00:00,
2013-07-21 04:22:00,76.0,65.0,-100.00,ESE,108,2.0,-999.0,69,0.00,,,-99.99,0.000000,,2013-07-21 09:22:00,
2013-07-21 04:32:00,76.0,65.0,-100.00,ESE,108,2.0,-999.0,69,0.00,,,-99.99,0.000000,,2013-07-21 09:32:00,
2013-07-21 04:42:00,76.0,65.0,-100.00,ESE,108,2.0,-999.0,69,0.00,,,-99.99,0.000000,,2013-07-21 09:42:00,
2013-07-21 04:52:00,76.0,65.0,-100.00,ESE,108,2.0,-999.0,69,0.00,,,-99.99,0.000000,,2013-07-21 09:52:00,
2013-07-21 05:00:00,74.0,67.0,-100.00,NNE,14,9.0,-999.0,80,0.08,,,-99.99,0.000000,,2013-07-21 10:00:00,
2013-07-21 05:22:00,74.0,67.0,-100.00,NNE,14,9.0,-999.0,80,0.08,,,-99.99,0.000000,,2013-07-21 10:22:00,
2013-07-21 05:32:00,74.0,67.0,-100.00,NNE,14,9.0,-999.0,80,0.08,,,-99.99,0.000000,,2013-07-21 10:32:00,
2013-07-21 05:43:00,74.0,67.0,-100.00,NNE,14,9.0,-999.0,80,0.08,,,-99.99,0.000000,,2013-07-21 10:43:00,
2013-07-21 05:52:00,74.0,67.0,-100.00,NNE,14,9.0,-999.0,80,0.08,,,-99.99,0.000000,,2013-07-21 10:52:00,
2013-07-21 06:00:00,71.0,67.0,-100.00,NE,41,6.0,-999.0,88,0.00,,,-99.99,0.000000,,2013-07-21 11:00:00,
2013-07-21 06:22:00,71.0,67.0,-100.00,NE,41,6.0,-999.0,88,0.00,,,-99.99,0.000000,,2013-07-21 11:22:00,
2013-07-21 06:33:00,71.0,67.0,-100.00,NE,41,6.0,-999.0,88,0.00,,,-99.99,0.000000,,2013-07-21 11:33:00,
2013-07-21 06:43:00,71.0,67.0,-100.00,NE,41,6.0,-999.0,88,0.00,,,-99.99,0.000000,,2013-07-21 11:43:00,
2013-07-21 06:52:00,71.0,67.0,-100.00,NE,41,6.0,-999.0,88,0.00,,,-99.99,0.000000,,2013-07-21 11:52:00,
2013-07-21 07:00:00,71.0,68.0,-100.00,East,89,3.0,-999.0,92,0.01,,,-99.99,0.000000,,2013-07-21 12:00:00,
2013-07-21 07:22:00,71.0,68.0,-100.00,East,89,3.0,-999.0,92,0.01,,,-99.99,0.000000,,2013-07-21 12:22:00,
2013-07-21 07:32:00,71.0,68.0,-100.00,East,89,3.0,-999.0,92,0.01,,,-99.99,0.000000,,2013-07-21 12:32:00,
2013-07-21 07:43:00,71.0,68.0,-100.00,East,89,3.0,-999.0,92,0.01,,,-99.99,0.000000,,2013-07-21 12:43:00,
2013-07-21 07:53:00,71.0,68.0,-100.00,East,89,3.0,-999.0,92,0.01,,,-99.99,0.000000,,2013-07-21 12:53:00,
2013-07-21 08:00:00,71.0,69.0,-100.00,SE,124,1.0,-999.0,93,0.00,,,-99.99,10.000000,,2013-07-21 13:00:00,
2013-07-21 08:22:00,71.0,69.0,-100.00,SE,124,1.0,-999.0,93,0.00,,,-99.99,10.000000,,2013-07-21 13:22:00,
2013-07-21 08:32:00,71.0,69.0,-100.00,SE,124,1.0,-999.0,93,0.00,,,-99.99,10.000000,,2013-07-21 13:32:00,
2013-07-21 08:43:00,71.0,69.0,-100.00,SE,124,1.0,-999.0,93,0.00,,,-99.99,10.000000,,2013-07-21 13:43:00,
2013-07-21 08:53:00,71.0,69.0,-100.00,SE,124,1.0,-999.0,93,0.00,,,-99.99,10.000000,,2013-07-21 13:53:00,
2013-07-21 09:00:00,72.0,69.0,-100.00,SE,132,1.0,-999.0,91,0.00,,,-99.99,69.000000,,2013-07-21 14:00:00,
2013-07-21 09:22:00,72.0,69.0,-100.00,SE,132,1.0,-999.0,91,0.00,,,-99.99,69.000000,,2013-07-21 14:22:00,
2013-07-21 09:32:00,72.0,69.0,-100.00,SE,132,1.0,-999.0,91,0.00,,,-99.99,69.000000,,2013-07-21 14:32:00,
2013-07-21 09:43:00,72.0,69.0,-100.00,SE,132,1.0,-999.0,91,0.00,,,-99.99,69.000000,,2013-07-21 14:43:00,
2013-07-21 09:53:00,72.0,69.0,-100.00,SE,132,1.0,-999.0,91,0.00,,,-99.99,69.000000,,2013-07-21 14:53:00,
2013-07-21 10:00:00,73.0,69.0,-100.00,NNW,339,6.0,-999.0,88,0.05,,,-99.99,20.000000,,2013-07-21 15:00:00,
2013-07-21 10:22:00,73.0,69.0,-100.00,NNW,339,6.0,-999.0,88,0.05,,,-99.99,20.000000,,2013-07-21 15:22:00,
2013-07-21 10:32:00,73.0,69.0,-100.00,NNW,339,6.0,-999.0,88,0.05,,,-99.99,20.000000,,2013-07-21 15:32:00,
2013-07-21 10:43:00,73.0,69.0,-100.00,NNW,339,6.0,-999.0,88,0.05,,,-99.99,20.000000,,2013-07-21 15:43:00,
2013-07-21 10:53:00,73.0,69.0,-100.00,NNW,339,6.0,-999.0,88,0.05,,,-99.99,20.000000,,2013-07-21 15:53:00,
2013-07-21 11:00:00,73.0,71.0,-100.00,East,97,1.0,-999.0,93,0.01,,,-99.99,194.000000,,2013-07-21 16:00:00,
2013-07-21 11:22:00,73.0,71.0,-100.00,East,97,1.0,-999.0,93,0.01,,,-99.99,194.000000,,2013-07-21 16:22:00,
2013-07-21 11:32:00,73.0,71.0,-100.00,East,97,1.0,-999.0,93,0.01,,,-99.99,194.000000,,2013-07-21 16:32:00,
2013-07-21 11:43:00,73.0,71.0,-100.00,East,97,1.0,-999.0,93,0.01,,,-99.99,194.000000,,2013-07-21 16:43:00,
2013-07-21 11:52:00,73.0,71.0,-100.00,East,97,1.0,-999.0,93,0.01,,,-99.99,194.000000,,2013-07-21 16:52:00,
2013-07-21 12:00:00,74.0,70.0,-100.00,East,90,1.0,-999.0,88,0.00,,,-99.99,169.000000,,2013-07-21 17:00:00,
2013-07-21 12:22:00,74.0,70.0,-100.00,East,90,1.0,-999.0,88,0.00,,,-99.99,169.000000,,2013-07-21 17:22:00,
2013-07-21 12:33:00,74.0,70.0,-100.00,East,90,1.0,-999.0,88,0.00,,,-99.99,169.000000,,2013-07-21 17:33:00,
2013-07-21 12:43:00,74.0,70.0,-100.00,East,90,1.0,-999.0,88,0.00,,,-99.99,169.000000,,2013-07-21 17:43:00,
2013-07-21 12:53:00,74.0,70.0,-100.00,East,90,1.0,-999.0,88,0.00,,,-99.99,169.000000,,2013-07-21 17:53:00,
2013-07-21 13:00:00,75.0,71.0,-100.00,ENE,71,1.0,-999.0,86,0.00,,,-99.99,178.000000,,2013-07-21 18:00:00,
2013-07-21 13:22:00,75.0,71.0,-100.00,ENE,71,1.0,-999.0,86,0.00,,,-99.99,178.000000,,2013-07-21 18:22:00,
2013-07-21 13:32:00,75.0,71.0,-100.00,ENE,71,1.0,-999.0,86,0.00,,,-99.99,178.000000,,2013-07-21 18:32:00,
2013-07-21 13:43:00,75.0,71.0,-100.00,ENE,71,1.0,-999.0,86,0.00,,,-99.99,178.000000,,2013-07-21 18:43:00,
2013-07-21 13:52:00,75.0,71.0,-100.00,ENE,71,1.0,-999.0,86,0.00,,,-99.99,178.000000,,2013-07-21 18:52:00,
2013-07-21 14:00:00,76.0,71.0,-100.00,ENE,72,4.0,-999.0,82,0.00,,,-99.99,213.000000,,2013-07-21 19:00:00,
2013-07-21 14:22:00,76.0,71.0,-100.00,ENE,72,4.0,-999.0,82,0.00,,,-99.99,213.000000,,2013-07-21 19:22:00,
2013-07-21 14:32:00,76.0,71.0,-100.00,ENE,72,4.0,-999.0,82,0.00,,,-99.99,213.000000,,2013-07-21 19:32:00,
2013-07-21 14:42:00,76.0,71.0,-100.00,ENE,72,4.0,-999.0,82,0.00,,,-99.99,213.000000,,2013-07-21 19:42:00,
2013-07-21 14:52:00,76.0,71.0,-100.00,ENE,72,4.0,-999.0,82,0.00,,,-99.99,213.000000,,2013-07-21 19:52:00,
2013-07-21 15:00:00,79.0,71.0,-100.00,ESE,121,1.0,-999.0,77,0.00,,,-99.99,389.000000,,2013-07-21 20:00:00,
2013-07-21 15:22:00,79.0,71.0,-100.00,ESE,121,1.0,-999.0,77,0.00,,,-99.99,389.000000,,2013-07-21 20:22:00,
2013-07-21 15:32:00,79.0,71.0,-100.00,ESE,121,1.0,-999.0,77,0.00,,,-99.99,389.000000,,2013-07-21 20:32:00,
2013-07-21 15:43:00,79.0,71.0,-100.00,ESE,121,1.0,-999.0,77,0.00,,,-99.99,389.000000,,2013-07-21 20:43:00,
2013-07-21 15:52:00,79.0,71.0,-100.00,ESE,121,1.0,-999.0,77,0.00,,,-99.99,389.000000,,2013-07-21 20:52:00,
2013-07-21 16:00:00,84.0,71.0,-100.00,SSE,160,5.0,-999.0,65,0.00,,,-99.99,567.000000,,2013-07-21 21:00:00,
2013-07-21 16:22:00,84.0,71.0,-100.00,SSE,160,5.0,-999.0,65,0.00,,,-99.99,567.000000,,2013-07-21 21:22:00,
2013-07-21 16:32:00,84.0,71.0,-100.00,SSE,160,5.0,-999.0,65,0.00,,,-99.99,567.000000,,2013-07-21 21:32:00,
2013-07-21 16:43:00,84.0,71.0,-100.00,SSE,160,5.0,-999.0,65,0.00,,,-99.99,567.000000,,2013-07-21 21:43:00,
2013-07-21 16:52:00,84.0,71.0,-100.00,SSE,160,5.0,-999.0,65,0.00,,,-99.99,567.000000,,2013-07-21 21:52:00,
2013-07-21 17:00:00,87.0,71.0,-100.00,SSE,168,5.0,-999.0,58,0.00,,,-99.99,651.000000,,2013-07-21 22:00:00,
2013-07-21 17:22:00,87.0,71.0,-100.00,SSE,168,5.0,-999.0,58,0.00,,,-99.99,651.000000,,2013-07-21 22:22:00,
2013-07-21 17:32:00,87.0,71.0,-100.00,SSE,168,5.0,-999.0,58,0.00,,,-99.99,651.000000,,2013-07-21 22:32:00,
2013-07-21 17:43:00,87.0,71.0,-100.00,SSE,168,5.0,-999.0,58,0.00,,,-99.99,651.000000,,2013-07-21 22:43:00,
2013-07-21 17:52:00,87.0,71.0,-100.00,SSE,168,5.0,-999.0,58,0.00,,,-99.99,651.000000,,2013-07-21 22:52:00,
2013-07-21 18:00:00,90.0,69.0,-100.00,South,188,4.0,-999.0,50,0.00,,,-99.99,563.000000,,2013-07-21 23:00:00,
2013-07-21 18:22:00,90.0,69.0,-100.00,South,188,4.0,-999.0,50,0.00,,,-99.99,563.000000,,2013-07-21 23:22:00,
2013-07-21 18:32:00,90.0,69.0,-100.00,South,188,4.0,-999.0,50,0.00,,,-99.99,563.000000,,2013-07-21 23:32:00,
2013-07-21 18:43:00,90.0,69.0,-100.00,South,188,4.0,-999.0,50,0.00,,,-99.99,563.000000,,2013-07-21 23:43:00,
2013-07-21 18:53:00,90.0,69.0,-100.00,South,188,4.0,-999.0,50,0.00,,,-99.99,563.000000,,2013-07-21 23:53:00,
2013-07-21 19:00:00,91.0,69.0,-100.00,South,182,4.0,-999.0,50,0.00,,,-99.99,349.000000,,2013-07-22 00:00:00,
2013-07-21 19:22:00,91.0,69.0,-100.00,South,182,4.0,-999.0,50,0.00,,,-99.99,349.000000,,2013-07-22 00:22:00,
2013-07-21 19:32:00,91.0,69.0,-100.00,South,182,4.0,-999.0,50,0.00,,,-99.99,349.000000,,2013-07-22 00:32:00,
2013-07-21 19:42:00,91.0,69.0,-100.00,South,182,4.0,-999.0,50,0.00,,,-99.99,349.000000,,2013-07-22 00:42:00,
2013-07-21 19:53:00,91.0,69.0,-100.00,South,182,4.0,-999.0,50,0.00,,,-99.99,349.000000,,2013-07-22 00:53:00,
2013-07-21 20:00:00,90.0,70.0,-100.00,SSE,168,3.0,-999.0,52,0.00,,,0.15,209.000000,,2013-07-22 01:00:00,
2013-07-21 20:22:00,90.0,70.0,-100.00,SSE,168,3.0,-999.0,52,0.00,,,0.15,209.000000,,2013-07-22 01:22:00,
2013-07-21 20:32:00,90.0,70.0,-100.00,SSE,168,3.0,-999.0,52,0.00,,,0.15,209.000000,,2013-07-22 01:32:00,
2013-07-21 20:42:00,90.0,70.0,-100.00,SSE,168,3.0,-999.0,52,0.00,,,0.15,209.000000,,2013-07-22 01:42:00,
2013-07-21 20:52:00,90.0,70.0,-100.00,SSE,168,3.0,-999.0,52,0.00,,,0.15,209.000000,,2013-07-22 01:52:00,
2013-07-21 21:00:00,85.0,72.0,-100.00,SSE,153,2.0,-999.0,65,0.00,,,0.15,19.000000,,2013-07-22 02:00:00,
2013-07-21 21:22:00,85.0,72.0,-100.00,SSE,153,2.0,-999.0,65,0.00,,,0.15,19.000000,,2013-07-22 02:22:00,
2013-07-21 21:32:00,85.0,72.0,-100.00,SSE,153,2.0,-999.0,65,0.00,,,0.15,19.000000,,2013-07-22 02:32:00,
2013-07-21 21:43:00,85.0,72.0,-100.00,SSE,153,2.0,-999.0,65,0.00,,,0.15,19.000000,,2013-07-22 02:43:00,
2013-07-21 21:52:00,85.0,72.0,-100.00,SSE,153,2.0,-999.0,65,0.00,,,0.15,19.000000,,2013-07-22 02:52:00,
2013-07-21 22:00:00,81.0,73.0,-100.00,SSE,152,1.0,-999.0,78,0.00,,,0.15,0.000000,,2013-07-22 03:00:00,
2013-07-21 22:22:00,81.0,73.0,-100.00,SSE,152,1.0,-999.0,78,0.00,,,0.15,0.000000,,2013-07-22 03:22:00,
2013-07-21 22:33:00,81.0,73.0,-100.00,SSE,152,1.0,-999.0,78,0.00,,,0.15,0.000000,,2013-07-22 03:33:00,
2013-07-21 22:43:00,81.0,73.0,-100.00,SSE,152,1.0,-999.0,78,0.00,,,0.15,0.000000,,2013-07-22 03:43:00,
2013-07-21 22:53:00,81.0,73.0,-100.00,SSE,152,1.0,-999.0,78,0.00,,,0.15,0.000000,,2013-07-22 03:53:00,